Time;durP1;ratioP1;P1;durP2;ratioP2;P2;SDS_P1;SDS_P2;PMS_P1;PMS_P2;Temp;Humidity;BMP_temperature;BMP_pressure;BME280_temperature;BME280_humidity;BME280_pressure;Samples;Min_cycle;Max_cycle;Signal;HPM_P1;HPM_P2
2022/05/22 00:01:53;;;;;;;;;7.75;7.75;;;;;11.99;70.00;100198.78;5056706;28;8864;-63
2022/05/22 00:04:21;;;;;;;;;6.25;6.25;;;;;12.00;70.17;100200.47;5056113;28;8830;-63
2022/05/22 00:06:49;;;;;;;;;6.75;6.00;;;;;12.02;70.13;100192.34;5056482;28;8864;-63
2022/05/22 00:09:17;;;;;;;;;5.50;4.00;;;;;12.03;70.22;100202.06;5056244;28;8854;-63
2022/05/22 00:11:45;;;;;;;;;10.00;9.00;;;;;12.04;69.90;100191.25;5056628;28;8856;-63
2022/05/22 00:14:13;;;;;;;;;9.00;8.50;;;;;12.05;70.19;100194.75;5053313;28;8863;-63
2022/05/22 00:16:41;;;;;;;;;7.00;7.00;;;;;12.04;69.91;100190.41;5035688;28;8849;-63
2022/05/22 00:19:11;;;;;;;;;11.75;7.50;;;;;12.00;69.99;100187.13;5035641;28;8844;-63
2022/05/22 00:21:38;;;;;;;;;7.00;5.50;;;;;12.02;70.19;100181.69;5036353;28;8840;-63
2022/05/22 00:24:06;;;;;;;;;3.50;3.00;;;;;12.04;69.73;100174.38;5037187;28;8844;-63
2022/05/22 00:26:34;;;;;;;;;4.00;3.75;;;;;12.07;70.12;100176.81;5035876;28;8832;-63
2022/05/22 00:29:02;;;;;;;;;7.00;7.00;;;;;12.09;69.92;100182.88;5043273;28;8952;-63
2022/05/22 00:31:29;;;;;;;;;7.00;6.00;;;;;12.11;70.42;100183.59;5055948;28;8850;-63
2022/05/22 00:33:57;;;;;;;;;6.00;5.50;;;;;12.09;69.62;100181.03;5056399;28;8822;-63
2022/05/22 00:36:25;;;;;;;;;6.50;5.75;;;;;12.10;69.89;100173.88;5056438;28;8960;-64
2022/05/22 00:38:53;;;;;;;;;4.00;4.00;;;;;12.11;69.76;100172.91;5055976;28;8860;-64
2022/05/22 00:41:21;;;;;;;;;4.00;3.75;;;;;12.11;69.63;100164.91;5056651;28;8873;-63
2022/05/22 00:43:48;;;;;;;;;6.00;5.50;;;;;12.09;69.68;100167.69;5056198;28;8818;-64
2022/05/22 00:46:16;;;;;;;;;8.00;6.75;;;;;12.08;70.03;100182.00;5056195;28;8842;-64
2022/05/22 00:48:44;;;;;;;;;3.50;3.50;;;;;12.05;69.68;100168.94;5056025;28;8849;-64
2022/05/22 00:51:12;;;;;;;;;6.75;6.25;;;;;12.02;69.91;100171.00;5055863;28;9016;-64
2022/05/22 00:53:39;;;;;;;;;4.00;4.00;;;;;12.00;69.79;100172.97;5055486;28;8850;-64
2022/05/22 00:56:07;;;;;;;;;5.00;5.00;;;;;11.98;70.06;100166.03;5055854;28;9480;-63
2022/05/22 00:58:35;;;;;;;;;6.50;6.50;;;;;11.96;70.09;100163.50;5052397;28;9579;-64
2022/05/22 01:01:03;;;;;;;;;3.50;2.50;;;;;11.96;69.94;100160.81;5035766;28;8840;-64
2022/05/22 01:03:31;;;;;;;;;8.50;7.00;;;;;11.95;70.09;100161.81;5034873;28;8877;-63
2022/05/22 01:05:59;;;;;;;;;7.00;6.00;;;;;11.94;70.29;100160.09;5035143;28;8856;-64
2022/05/22 01:08:27;;;;;;;;;4.00;4.00;;;;;11.92;70.55;100154.06;5035825;28;8845;-63
2022/05/22 01:10:55;;;;;;;;;4.25;3.75;;;;;11.92;70.24;100154.06;5035900;28;8836;-63
2022/05/22 01:13:22;;;;;;;;;6.00;6.00;;;;;11.86;70.54;100161.69;5035917;28;8828;-63
2022/05/22 01:15:50;;;;;;;;;7.00;7.00;;;;;11.79;70.83;100163.16;5035510;28;8856;-64
2022/05/22 01:18:18;;;;;;;;;9.25;9.25;;;;;11.71;70.46;100162.94;5035916;28;9517;-64
2022/05/22 01:20:46;;;;;;;;;4.75;3.75;;;;;11.63;70.84;100152.91;5035592;28;8870;-63
2022/05/22 01:23:14;;;;;;;;;7.25;7.25;;;;;11.57;70.93;100156.03;5039024;28;8972;-66
2022/05/22 01:25:41;;;;;;;;;6.50;6.00;;;;;11.52;71.12;100152.88;5039413;28;8841;-63
2022/05/22 01:28:09;;;;;;;;;6.00;6.00;;;;;11.50;71.31;100151.28;5040156;28;8871;-63
2022/05/22 01:30:37;;;;;;;;;6.75;6.25;;;;;11.45;71.28;100149.00;5059484;28;8823;-64
2022/05/22 01:33:04;;;;;;;;;7.50;7.00;;;;;11.42;71.44;100149.25;5059800;28;8898;-64
2022/05/22 01:35:32;;;;;;;;;3.00;3.00;;;;;11.39;71.23;100143.31;5059498;28;8838;-64
2022/05/22 01:38:00;;;;;;;;;6.75;6.00;;;;;11.36;71.46;100140.91;5059901;28;8959;-63
2022/05/22 01:40:28;;;;;;;;;6.00;5.00;;;;;11.31;71.23;100135.06;5059307;28;8945;-63
2022/05/22 01:42:55;;;;;;;;;4.50;4.00;;;;;11.29;71.73;100131.69;5059686;28;8834;-63
2022/05/22 01:45:23;;;;;;;;;9.00;7.00;;;;;11.27;71.66;100138.94;5059453;28;9707;-63
2022/05/22 01:47:51;;;;;;;;;9.25;8.50;;;;;11.23;71.19;100146.31;5059510;28;8870;-63
2022/05/22 01:50:20;;;;;;;;;7.00;6.25;;;;;11.19;71.71;100131.56;5059665;28;8846;-63
2022/05/22 01:52:48;;;;;;;;;7.50;6.75;;;;;11.17;71.74;100125.50;5059479;28;8844;-63
2022/05/22 01:55:16;;;;;;;;;9.00;8.50;;;;;11.15;71.53;100138.09;5059550;28;8838;-63
2022/05/22 01:57:43;;;;;;;;;8.00;8.00;;;;;11.14;71.87;100136.41;5059074;28;8838;-63
2022/05/22 02:00:12;;;;;;;;;8.50;8.50;;;;;11.13;71.72;100137.38;5058815;28;8915;-62
2022/05/22 02:02:39;;;;;;;;;8.50;8.50;;;;;11.11;72.15;100139.31;5058866;28;8997;-64
2022/05/22 02:05:07;;;;;;;;;9.25;8.50;;;;;11.10;71.69;100145.63;5059130;28;8943;-63
2022/05/22 02:10:22;;;;;;;;;10.00;9.25;;;;;11.06;71.57;100149.47;5058975;28;8970;-63
2022/05/22 02:12:50;;;;;;;;;4.00;4.00;;;;;11.07;71.81;100151.16;5059187;28;8974;-63
2022/05/22 02:15:17;;;;;;;;;3.75;3.25;;;;;11.10;71.74;100147.44;5059193;28;8976;-64
2022/05/22 02:17:45;;;;;;;;;5.50;5.50;;;;;11.11;71.60;100149.97;5055107;28;8817;-63
2022/05/22 02:20:13;;;;;;;;;6.75;6.00;;;;;11.16;71.59;100147.78;5059143;28;8830;-63
2022/05/22 02:22:41;;;;;;;;;5.00;5.00;;;;;11.18;71.53;100140.53;5058444;28;8885;-63
2022/05/22 02:25:09;;;;;;;;;6.75;6.75;;;;;11.17;71.13;100141.50;5057998;28;8846;-63
2022/05/22 02:27:36;;;;;;;;;6.75;6.50;;;;;11.15;71.25;100140.75;5058533;28;8838;-63
2022/05/22 02:30:05;;;;;;;;;6.25;6.00;;;;;11.12;71.36;100137.47;5059107;28;8877;-63
2022/05/22 02:32:33;;;;;;;;;9.25;9.00;;;;;11.08;71.56;100123.56;5058256;28;8964;-63
2022/05/22 02:35:01;;;;;;;;;3.00;3.00;;;;;11.05;71.49;100128.28;5058729;28;8980;-63
2022/05/22 02:37:28;;;;;;;;;8.00;6.50;;;;;11.01;71.64;100116.16;5058421;28;8834;-63
2022/05/22 02:39:56;;;;;;;;;8.00;8.00;;;;;10.95;71.78;100111.31;5058581;28;9485;-63
2022/05/22 02:42:24;;;;;;;;;7.00;6.50;;;;;10.89;71.64;100103.81;5058440;28;8823;-64
2022/05/22 02:44:52;;;;;;;;;6.50;5.50;;;;;10.84;71.67;100098.00;5058286;28;9662;-63
2022/05/22 02:47:20;;;;;;;;;8.50;8.50;;;;;10.77;72.43;100092.28;5056697;28;8834;-64
2022/05/22 02:49:49;;;;;;;;;10.50;9.00;;;;;10.72;72.50;100109.59;5038509;28;8950;-64
2022/05/22 02:52:16;;;;;;;;;5.50;5.50;;;;;10.69;72.43;100101.84;5038487;28;8846;-63
2022/05/22 02:54:44;;;;;;;;;9.75;6.50;;;;;10.64;72.51;100088.91;5038446;28;8828;-63
2022/05/22 02:57:12;;;;;;;;;6.00;4.50;;;;;10.59;72.37;100085.75;5038490;28;8875;-63
2022/05/22 02:59:40;;;;;;;;;4.50;4.50;;;;;10.56;72.65;100075.31;5037938;28;8847;-63
2022/05/22 03:02:07;;;;;;;;;2.00;1.50;;;;;10.53;72.49;100066.72;5037676;28;8852;-63
2022/05/22 03:04:35;;;;;;;;;8.50;6.00;;;;;10.50;73.07;100065.16;5038078;28;8833;-63
2022/05/22 03:07:03;;;;;;;;;7.00;6.75;;;;;10.49;72.69;100066.13;5037561;28;8970;-63
2022/05/22 03:09:31;;;;;;;;;4.50;4.50;;;;;10.47;72.97;100060.06;5038034;28;8979;-63
2022/05/22 03:11:59;;;;;;;;;6.50;6.50;;;;;10.44;72.56;100075.41;5037973;28;8833;-63
2022/05/22 03:14:26;;;;;;;;;11.00;9.00;;;;;10.40;73.10;100072.13;5037563;28;8925;-63
2022/05/22 03:16:55;;;;;;;;;8.25;7.25;;;;;10.39;73.20;100077.59;5036925;28;8840;-63
2022/05/22 03:19:24;;;;;;;;;6.00;6.00;;;;;10.39;72.85;100081.09;5054061;28;8845;-63
2022/05/22 03:21:52;;;;;;;;;9.00;7.00;;;;;10.42;73.07;100086.19;5056945;28;8844;-63
2022/05/22 03:24:20;;;;;;;;;7.00;7.00;;;;;10.45;72.56;100085.94;5056996;28;8846;-63
2022/05/22 03:26:47;;;;;;;;;6.75;6.75;;;;;10.51;72.49;100084.63;5057181;28;8838;-62
2022/05/22 03:29:15;;;;;;;;;7.00;6.50;;;;;10.55;72.29;100078.94;5057060;28;8852;-63
2022/05/22 03:31:43;;;;;;;;;8.50;8.00;;;;;10.61;71.93;100080.31;5057286;28;8846;-63
2022/05/22 03:34:11;;;;;;;;;8.50;7.50;;;;;10.63;72.28;100067.72;5056217;28;8838;-63
2022/05/22 03:36:39;;;;;;;;;8.00;6.00;;;;;10.64;71.98;100075.59;5056666;28;8846;-63
2022/05/22 03:39:08;;;;;;;;;7.00;6.00;;;;;10.67;71.95;100069.16;5056667;28;8827;-63
2022/05/22 03:41:35;;;;;;;;;6.50;6.25;;;;;10.69;71.91;100077.91;5056329;28;8976;-63
2022/05/22 03:44:03;;;;;;;;;5.00;5.00;;;;;10.71;72.12;100078.63;5055475;28;8952;-63
2022/05/22 03:46:30;;;;;;;;;8.50;8.50;;;;;10.72;71.86;100080.31;5056300;28;8858;-64
2022/05/22 03:48:59;;;;;;;;;7.25;6.25;;;;;10.72;71.80;100080.31;5042759;28;8910;-63
2022/05/22 03:51:26;;;;;;;;;7.00;7.00;;;;;10.71;71.76;100078.63;5036099;28;8828;-63
2022/05/22 03:53:54;;;;;;;;;6.50;6.50;;;;;10.69;72.33;100062.75;5037298;28;8870;-63
2022/05/22 03:56:21;;;;;;;;;5.00;5.00;;;;;10.70;72.32;100056.44;5037377;28;8832;-63
2022/05/22 03:58:50;;;;;;;;;6.00;6.00;;;;;10.72;71.99;100065.19;5037332;28;8956;-63
2022/05/22 04:01:18;;;;;;;;;8.00;7.50;;;;;10.73;71.72;100064.22;5036273;28;8862;-64
2022/05/22 04:03:46;;;;;;;;;5.00;5.00;;;;;10.76;71.98;100061.28;5037053;28;8848;-63
2022/05/22 04:06:14;;;;;;;;;7.50;6.50;;;;;10.81;71.79;100052.94;5036284;28;8964;-63
2022/05/22 04:08:41;;;;;;;;;8.00;6.50;;;;;10.86;71.99;100056.94;5036227;28;8845;-63
2022/05/22 04:11:09;;;;;;;;;6.25;6.25;;;;;10.91;71.43;100048.59;5037355;28;8854;-63
2022/05/22 04:13:37;;;;;;;;;6.50;5.50;;;;;10.94;71.68;100041.19;5036794;28;8974;-63
2022/05/22 04:16:05;;;;;;;;;7.00;6.50;;;;;10.96;71.20;100041.94;5036776;28;8995;-63
2022/05/22 04:18:33;;;;;;;;;4.50;4.00;;;;;10.94;71.52;100037.69;5047665;28;8946;-64
2022/05/22 04:21:01;;;;;;;;;5.00;5.00;;;;;10.91;72.00;100036.13;5056404;28;8970;-63
2022/05/22 04:26:13;;;;;;;;;6.00;6.00;;;;;10.91;71.69;100043.28;5055785;28;9551;-64
2022/05/22 04:28:41;;;;;;;;;8.00;6.50;;;;;10.94;71.62;100046.50;5055811;28;8858;-63
2022/05/22 04:31:09;;;;;;;;;1.50;1.50;;;;;11.01;71.80;100038.91;5055417;28;8881;-64
2022/05/22 04:33:36;;;;;;;;;5.00;5.00;;;;;11.10;71.25;100041.69;5055366;28;8838;-64
2022/05/22 04:36:04;;;;;;;;;5.50;5.50;;;;;11.21;71.24;100046.16;5056573;28;8846;-64
2022/05/22 04:38:32;;;;;;;;;3.75;3.75;;;;;11.28;70.78;100040.19;5055987;28;8927;-64
2022/05/22 04:41:00;;;;;;;;;9.25;9.00;;;;;11.35;70.30;100036.06;5056003;28;8822;-64
2022/05/22 04:43:27;;;;;;;;;7.25;6.00;;;;;11.40;70.79;100033.88;5055998;28;8981;-64
2022/05/22 04:45:55;;;;;;;;;8.00;6.50;;;;;11.45;70.22;100037.00;5056228;28;8846;-63
2022/05/22 04:48:23;;;;;;;;;7.00;7.00;;;;;11.46;70.78;100038.69;5043749;28;8859;-63
2022/05/22 04:50:51;;;;;;;;;7.00;4.00;;;;;11.46;70.63;100049.34;5035599;28;8828;-63
2022/05/22 04:53:19;;;;;;;;;6.00;4.00;;;;;11.46;70.47;100046.69;5034737;28;8902;-64
2022/05/22 04:55:46;;;;;;;;;9.50;7.00;;;;;11.48;70.54;100051.91;5034974;28;8844;-63
2022/05/22 04:58:15;;;;;;;;;7.75;7.50;;;;;11.51;70.94;100052.50;5035255;28;8837;-64
2022/05/22 05:00:43;;;;;;;;;4.50;4.00;;;;;11.55;70.24;100043.28;5034382;28;8848;-64
2022/05/22 05:03:11;;;;;;;;;6.50;6.00;;;;;11.57;70.48;100037.81;5035191;28;8868;-64
2022/05/22 05:05:38;;;;;;;;;7.50;7.00;;;;;11.58;70.22;100036.88;5035180;28;8848;-63
2022/05/22 05:08:06;;;;;;;;;8.00;8.00;;;;;11.58;70.29;100036.88;5036136;28;8955;-64
2022/05/22 05:10:34;;;;;;;;;7.50;6.50;;;;;11.59;70.06;100039.41;5036065;28;8836;-64
2022/05/22 05:13:02;;;;;;;;;6.75;6.00;;;;;11.61;70.65;100045.47;5036184;28;8836;-64
2022/05/22 05:15:30;;;;;;;;;6.00;5.75;;;;;11.62;70.19;100044.50;5035979;28;9553;-64
2022/05/22 05:17:58;;;;;;;;;4.50;4.00;;;;;11.71;70.67;100049.09;5043196;28;8960;-64
2022/05/22 05:20:28;;;;;;;;;5.00;4.50;;;;;11.86;69.72;100053.16;5055929;28;8968;-64
2022/05/22 05:22:56;;;;;;;;;5.75;4.00;;;;;12.02;69.94;100054.41;5039169;28;8825;-63
2022/05/22 05:25:23;;;;;;;;;3.00;1.00;;;;;12.23;69.50;100054.44;5034932;28;8865;-63
2022/05/22 05:27:51;;;;;;;;;7.00;5.50;;;;;12.44;68.96;100049.91;5035704;28;8922;-64
2022/05/22 05:30:19;;;;;;;;;4.50;4.00;;;;;12.68;68.45;100048.66;5034818;28;8840;-64
2022/05/22 05:32:47;;;;;;;;;8.00;7.00;;;;;12.86;67.84;100046.22;5035699;28;8898;-64
2022/05/22 05:35:14;;;;;;;;;9.00;9.00;;;;;13.01;67.46;100037.75;5036151;28;8851;-64
2022/05/22 05:37:42;;;;;;;;;7.25;6.50;;;;;13.19;67.38;100033.44;5035909;28;8862;-64
2022/05/22 05:40:10;;;;;;;;;5.50;3.00;;;;;13.36;67.44;100024.75;5035606;28;8824;-65
2022/05/22 05:42:38;;;;;;;;;7.00;7.00;;;;;13.56;66.61;100042.53;5035583;28;8852;-64
2022/05/22 05:45:06;;;;;;;;;4.50;4.50;;;;;13.76;67.00;100027.34;5035615;28;8875;-64
2022/05/22 05:47:34;;;;;;;;;3.50;1.00;;;;;13.90;66.15;100025.09;5041633;28;8829;-64
2022/05/22 05:50:02;;;;;;;;;9.00;8.00;;;;;13.99;65.64;100026.94;5055691;28;8842;-64
2022/05/22 05:52:30;;;;;;;;;1.50;1.00;;;;;14.09;65.80;100029.59;5055728;28;8968;-64
2022/05/22 05:55:01;;;;;;;;;7.50;7.00;;;;;14.18;66.00;100023.44;5055100;28;8845;-64
2022/05/22 05:57:28;;;;;;;;;7.00;7.00;;;;;14.29;65.71;100031.31;5054693;28;8868;-64
2022/05/22 05:59:56;;;;;;;;;9.00;9.00;;;;;14.34;65.61;100026.38;5054612;28;8860;-64
2022/05/22 06:02:23;;;;;;;;;9.50;9.00;;;;;14.30;66.58;100022.28;5054399;28;8854;-64
2022/05/22 06:04:51;;;;;;;;;5.25;3.75;;;;;14.24;65.83;100012.97;5054182;28;8834;-65
2022/05/22 06:07:19;;;;;;;;;3.75;3.25;;;;;14.17;66.29;100024.38;5054176;28;8913;-64
2022/05/22 06:09:47;;;;;;;;;8.00;6.75;;;;;14.08;67.39;100023.41;5057641;28;8850;-64
2022/05/22 06:12:15;;;;;;;;;6.50;6.50;;;;;14.01;66.95;100021.41;5057756;28;8849;-65
2022/05/22 06:14:42;;;;;;;;;8.00;7.50;;;;;13.95;67.80;100021.97;5057613;28;8830;-64
2022/05/22 06:17:10;;;;;;;;;6.00;4.50;;;;;13.92;67.77;100020.47;5054308;28;9527;-63
2022/05/22 06:19:57;;;;;;;;;8.75;7.75;;;;;13.90;67.89;100018.91;5037618;28;8829;-64
2022/05/22 06:22:32;;;;;;;;;9.50;9.50;;;;;13.92;67.94;100019.59;5038276;28;8844;-63
2022/05/22 06:25:00;;;;;;;;;10.50;9.25;;;;;13.96;67.54;100023.69;5038288;28;8836;-63
2022/05/22 06:27:28;;;;;;;;;9.75;9.00;;;;;14.03;67.37;100027.50;5037835;28;8852;-64
2022/05/22 06:29:56;;;;;;;;;11.75;11.50;;;;;14.10;67.85;100020.56;5037931;28;8844;-64
2022/05/22 06:32:24;;;;;;;;;9.50;9.50;;;;;14.22;67.22;100024.81;5038447;28;8856;-64
2022/05/22 06:34:52;;;;;;;;;2.50;2.50;;;;;14.38;66.97;100022.41;5038203;28;8844;-65
2022/05/22 06:37:19;;;;;;;;;12.75;10.00;;;;;14.50;66.69;100024.75;5038239;28;8848;-64
2022/05/22 06:39:54;;;;;;;;;9.50;8.50;;;;;14.59;66.24;100031.09;5038186;28;8875;-64
2022/05/22 06:42:21;;;;;;;;;12.00;10.50;;;;;14.65;66.35;100033.22;5038228;28;8851;-64
2022/05/22 06:44:49;;;;;;;;;11.50;11.00;;;;;14.74;66.01;100035.00;5038416;28;8836;-65
2022/05/22 06:47:17;;;;;;;;;10.50;10.50;;;;;14.88;65.97;100034.53;5040567;28;8830;-64
2022/05/22 06:49:51;;;;;;;;;6.50;5.50;;;;;15.06;65.67;100030.94;5057726;28;8935;-63
2022/05/22 06:52:19;;;;;;;;;12.75;12.25;;;;;15.22;65.36;100022.22;5057924;28;8848;-65
2022/05/22 06:54:46;;;;;;;;;6.50;6.00;;;;;15.38;65.10;100026.00;5058026;28;8864;-65
2022/05/22 06:57:14;;;;;;;;;10.50;7.50;;;;;15.54;64.97;100012.75;5057956;28;9531;-64
2022/05/22 06:59:42;;;;;;;;;13.00;11.50;;;;;15.68;65.01;100014.06;5057483;28;8957;-63
2022/05/22 07:02:10;;;;;;;;;14.00;14.00;;;;;15.80;64.29;100013.69;5057621;28;9504;-65
2022/05/22 07:04:37;;;;;;;;;15.50;15.25;;;;;15.95;63.89;100011.31;5056985;28;8842;-64
2022/05/22 07:07:05;;;;;;;;;4.00;4.00;;;;;16.07;64.82;100015.47;5056932;28;8830;-64
2022/05/22 07:09:33;;;;;;;;;9.75;9.50;;;;;16.20;63.41;100011.38;5056647;28;8854;-64
2022/05/22 07:12:01;;;;;;;;;12.00;10.75;;;;;16.32;63.94;100010.13;5057568;28;8848;-64
2022/05/22 07:14:29;;;;;;;;;12.00;9.50;;;;;16.43;63.84;100010.75;5057562;28;8846;-64
2022/05/22 07:16:56;;;;;;;;;9.00;9.00;;;;;16.55;63.35;100014.03;5056310;28;8868;-63
2022/05/22 07:19:24;;;;;;;;;10.25;9.75;;;;;16.68;63.12;100017.09;5036961;28;8833;-64
2022/05/22 07:21:52;;;;;;;;;11.25;10.00;;;;;16.80;62.98;100005.91;5037029;28;8972;-63
2022/05/22 07:24:20;;;;;;;;;11.25;9.50;;;;;16.94;62.98;100010.69;5037214;28;8848;-64
2022/05/22 07:26:47;;;;;;;;;11.50;11.00;;;;;17.07;62.68;100019.19;5036993;28;8862;-64
2022/05/22 07:29:15;;;;;;;;;6.75;6.75;;;;;17.19;62.29;100017.91;5037052;28;9542;-64
2022/05/22 07:31:43;;;;;;;;;9.00;9.00;;;;;17.24;62.77;100012.84;5037282;28;9495;-64
2022/05/22 07:34:11;;;;;;;;;10.00;10.00;;;;;17.30;62.24;100017.59;5036992;28;8861;-64
2022/05/22 07:36:39;;;;;;;;;10.50;10.00;;;;;17.37;62.61;100024.03;5036872;28;8914;-64
2022/05/22 07:39:06;;;;;;;;;11.25;10.50;;;;;17.48;62.18;100006.75;5036768;28;8840;-64
2022/05/22 07:41:35;;;;;;;;;9.25;9.25;;;;;17.62;61.88;100006.94;5036569;28;8929;-64
2022/05/22 07:44:02;;;;;;;;;11.00;10.00;;;;;17.76;61.76;100014.38;5036627;28;8840;-64
2022/05/22 07:46:30;;;;;;;;;13.00;12.25;;;;;17.90;61.36;100002.13;5035583;28;8860;-64
2022/05/22 07:48:58;;;;;;;;;10.60;10.40;;;;;18.00;61.10;99998.25;5055133;28;8845;-66
2022/05/22 07:51:26;;;;;;;;;9.40;7.80;;;;;18.09;61.26;100002.66;5056658;28;9850;-65
2022/05/22 07:53:53;;;;;;;;;9.60;9.40;;;;;18.20;61.26;99986.13;5056833;28;8880;-64
2022/05/22 07:56:22;;;;;;;;;12.80;10.80;;;;;18.28;61.09;99985.28;5056515;28;8826;-65
2022/05/22 07:58:51;;;;;;;;;13.00;12.60;;;;;18.38;60.88;99986.81;5056468;28;8877;-64
2022/05/22 08:01:18;;;;;;;;;9.60;9.60;;;;;18.49;61.12;99982.91;5056515;28;8985;-65
2022/05/22 08:03:46;;;;;;;;;12.40;10.00;;;;;18.60;60.57;99980.69;5056389;28;8854;-64
2022/05/22 08:06:14;;;;;;;;;11.40;11.20;;;;;18.72;60.75;99987.44;5056057;28;8846;-65
2022/05/22 08:08:44;;;;;;;;;9.20;8.60;;;;;18.78;60.71;99977.78;5056009;28;8830;-64
2022/05/22 08:11:11;;;;;;;;;15.20;12.60;;;;;18.80;60.73;99979.31;5055899;28;8842;-64
2022/05/22 08:13:39;;;;;;;;;11.00;9.60;;;;;18.84;60.05;99986.06;5055192;28;8842;-64
2022/05/22 08:16:07;;;;;;;;;11.80;11.80;;;;;18.92;60.54;99985.16;5055807;28;8860;-65
2022/05/22 08:18:35;;;;;;;;;10.60;9.60;;;;;18.98;60.46;99982.59;5039403;28;8867;-64
2022/05/22 08:21:03;;;;;;;;;10.20;9.40;;;;;19.08;60.59;99985.09;5035624;28;8825;-64
2022/05/22 08:23:30;;;;;;;;;9.80;9.60;;;;;19.18;59.64;99983.06;5036028;28;8856;-65
2022/05/22 08:25:59;;;;;;;;;12.60;12.20;;;;;19.29;59.92;99980.84;5035608;28;8855;-65
2022/05/22 08:28:28;;;;;;;;;12.20;12.00;;;;;19.36;59.76;99981.78;5038033;28;8849;-65
2022/05/22 08:30:55;;;;;;;;;10.00;9.20;;;;;19.49;59.71;99973.97;5055561;28;8870;-65
2022/05/22 08:33:23;;;;;;;;;12.60;11.80;;;;;19.64;58.97;99969.47;5056488;28;8969;-64
2022/05/22 08:35:51;;;;;;;;;6.20;5.40;;;;;19.77;59.20;99961.63;5055934;28;8996;-65
2022/05/22 08:38:18;;;;;;;;;3.20;2.20;;;;;19.91;58.63;99962.69;5055771;28;8927;-64
2022/05/22 08:40:46;;;;;;;;;11.40;10.20;;;;;19.97;58.41;99957.44;5054750;28;8830;-64
2022/05/22 08:43:14;;;;;;;;;10.40;9.20;;;;;20.03;58.88;99948.56;5055289;28;8948;-64
2022/05/22 08:45:42;;;;;;;;;11.00;9.60;;;;;20.07;58.46;99952.63;5055812;28;8849;-64
2022/05/22 08:48:10;;;;;;;;;10.80;10.00;;;;;20.11;58.97;99947.72;5053562;28;8842;-63
2022/05/22 08:50:37;;;;;;;;;4.80;4.80;;;;;20.19;58.60;99945.75;5053129;28;8842;-64
2022/05/22 08:53:05;;;;;;;;;7.20;7.20;;;;;20.32;58.36;99947.84;5053253;28;8834;-64
2022/05/22 09:01:01;;;;;;;;;8.00;8.00;;;;;20.61;57.96;99940.59;5034859;28;8828;-64
2022/05/22 09:03:29;;;;;;;;;11.00;10.40;;;;;20.67;57.53;99947.97;5034886;28;8898;-64
2022/05/22 09:05:56;;;;;;;;;8.00;8.00;;;;;20.72;57.51;99933.88;5035597;28;8837;-64
2022/05/22 09:08:24;;;;;;;;;11.00;10.20;;;;;20.78;57.69;99937.53;5034708;28;8862;-64
2022/05/22 09:10:52;;;;;;;;;5.80;4.20;;;;;20.83;57.08;99932.41;5034894;28;8860;-63
2022/05/22 09:13:19;;;;;;;;;7.00;6.60;;;;;20.87;57.33;99930.19;5035381;28;8914;-64
2022/05/22 09:16:02;;;;;;;;;9.40;9.00;;;;;20.94;57.04;99925.69;5035552;28;8844;-64
2022/05/22 09:18:31;;;;;;;;;7.40;7.40;;;;;21.01;57.26;99932.03;5035060;28;8941;-64
2022/05/22 09:20:58;;;;;;;;;8.00;7.40;;;;;21.07;56.92;99921.28;5035169;28;8841;-64
2022/05/22 09:23:26;;;;;;;;;7.00;5.00;;;;;21.13;56.69;99920.53;5035195;28;8840;-65
2022/05/22 09:25:54;;;;;;;;;7.60;6.80;;;;;21.18;56.37;99922.69;5035171;28;8837;-63
2022/05/22 09:28:22;;;;;;;;;11.00;10.80;;;;;21.29;56.71;99919.47;5040028;28;8846;-63
2022/05/22 09:30:49;;;;;;;;;10.60;10.60;;;;;21.41;55.96;99912.53;5053695;28;9813;-64
2022/05/22 09:33:17;;;;;;;;;8.00;7.20;;;;;21.50;55.76;99906.78;5054774;28;8866;-64
2022/05/22 09:35:45;;;;;;;;;4.20;4.20;;;;;21.65;55.37;99914.88;5054914;28;8818;-64
2022/05/22 09:38:12;;;;;;;;;7.80;7.00;;;;;21.74;55.60;99897.47;5055126;28;8931;-64
2022/05/22 09:40:40;;;;;;;;;10.20;9.00;;;;;21.75;55.38;99894.56;5054940;28;9858;-64
2022/05/22 09:43:08;;;;;;;;;8.00;8.00;;;;;21.88;55.24;99891.13;5055698;28;8822;-69
2022/05/22 09:45:36;;;;;;;;;8.20;7.80;;;;;22.06;54.39;99895.06;5055699;28;8837;-65
2022/05/22 09:48:03;;;;;;;;;7.20;6.40;;;;;22.28;54.02;99884.97;5059046;28;8834;-65
2022/05/22 09:50:48;;;;;;;;;8.40;8.40;;;;;22.55;53.68;99884.16;5057092;28;8889;-64
2022/05/22 09:53:15;;;;;;;;;5.40;5.40;;;;;22.88;53.04;99885.16;5058970;28;8834;-64
2022/05/22 09:55:44;;;;;;;;;6.40;6.00;;;;;23.24;52.04;99881.19;5059068;28;8838;-65
2022/05/22 09:58:13;;;;;;;;;8.40;6.80;;;;;23.54;51.36;99879.78;5055888;28;8839;-65
2022/05/22 10:00:41;;;;;;;;;8.20;8.00;;;;;23.83;50.94;99875.84;5038839;28;8967;-64
2022/05/22 10:03:09;;;;;;;;;8.60;8.60;;;;;24.19;50.73;99873.59;5038314;28;8860;-64
2022/05/22 10:05:37;;;;;;;;;9.60;9.60;;;;;24.50;50.03;99881.91;5037125;28;8867;-64
2022/05/22 10:08:04;;;;;;;;;9.80;9.20;;;;;24.85;49.46;99886.03;5037727;28;8975;-64
2022/05/22 10:10:32;;;;;;;;;8.80;8.20;;;;;25.21;48.92;99880.84;5037567;28;8883;-64
2022/05/22 10:13:00;;;;;;;;;10.20;9.00;;;;;25.58;48.77;99879.00;5037234;28;8836;-64
2022/05/22 10:15:27;;;;;;;;;6.20;5.80;;;;;25.94;48.79;99884.66;5037928;28;8878;-65
2022/05/22 10:17:55;;;;;;;;;6.40;6.40;;;;;26.29;48.38;99871.34;5037929;28;8870;-66
2022/05/22 10:20:23;;;;;;;;;10.80;10.60;;;;;26.55;47.47;99876.59;5038671;28;8860;-64
2022/05/22 10:22:51;;;;;;;;;10.40;8.40;;;;;26.78;46.94;99874.84;5036423;28;8966;-64
2022/05/22 10:25:18;;;;;;;;;7.00;7.00;;;;;27.03;46.73;99864.63;5036334;28;8999;-65
2022/05/22 10:27:46;;;;;;;;;8.00;7.80;;;;;27.33;46.34;99870.19;5037040;28;8852;-65
2022/05/22 10:30:14;;;;;;;;;7.00;7.00;;;;;27.60;46.35;99872.31;5048848;28;8843;-64
2022/05/22 10:32:42;;;;;;;;;8.00;7.40;;;;;27.87;46.00;99868.16;5036825;28;8994;-64
2022/05/22 10:35:09;;;;;;;;;8.60;8.00;;;;;28.16;45.75;99860.91;5037700;28;9025;-64
2022/05/22 10:37:37;;;;;;;;;9.60;9.40;;;;;28.39;44.92;99858.22;5036928;28;8872;-64
2022/05/22 10:40:05;;;;;;;;;7.00;6.40;;;;;28.69;44.78;99859.75;5037184;28;8848;-65
2022/05/22 10:42:47;;;;;;;;;8.60;8.00;;;;;28.86;43.85;99860.66;5037556;28;8832;-65
2022/05/22 10:45:15;;;;;;;;;8.20;8.20;;;;;29.11;43.92;99855.75;5037302;28;8942;-64
2022/05/22 10:47:43;;;;;;;;;10.40;9.20;;;;;29.23;44.26;99853.81;5036898;28;8833;-64
2022/05/22 10:50:14;;;;;;;;;10.80;10.00;;;;;28.94;44.35;99868.56;5037447;28;8856;-64
2022/05/22 10:52:42;;;;;;;;;11.40;9.80;;;;;28.86;44.37;99863.41;5037203;28;8968;-64
2022/05/22 10:55:09;;;;;;;;;9.40;8.00;;;;;28.52;44.72;99850.56;5036333;28;8929;-64
2022/05/22 10:57:38;;;;;;;;;7.60;7.00;;;;;28.15;45.47;99851.84;5036169;28;8926;-64
2022/05/22 11:00:06;;;;;;;;;9.80;9.00;;;;;27.48;46.76;99857.75;5057082;28;8834;-65
2022/05/22 11:02:34;;;;;;;;;8.00;8.00;;;;;27.06;47.39;99853.25;5057205;28;8877;-64
2022/05/22 11:05:02;;;;;;;;;10.80;9.00;;;;;27.47;46.00;99856.06;5055944;28;8841;-65
2022/05/22 11:07:29;;;;;;;;;8.00;8.00;;;;;28.01;45.47;99849.59;5056495;28;8960;-65
2022/05/22 11:09:57;;;;;;;;;9.00;8.20;;;;;28.54;43.95;99851.19;5055346;28;9685;-64
2022/05/22 11:12:25;;;;;;;;;9.80;9.40;;;;;28.89;43.76;99842.91;5036930;28;8855;-64
2022/05/22 11:14:53;;;;;;;;;8.00;8.00;;;;;29.31;43.15;99836.09;5036952;28;8844;-65
2022/05/22 11:17:21;;;;;;;;;9.00;8.00;;;;;29.56;42.68;99831.94;5037204;28;8979;-64
2022/05/22 11:19:48;;;;;;;;;13.80;11.00;;;;;28.82;43.91;99826.56;5036808;28;8848;-64
2022/05/22 11:22:16;;;;;;;;;8.00;8.00;;;;;27.97;45.92;99835.53;5036749;28;8813;-65
2022/05/22 11:24:45;;;;;;;;;13.00;11.00;;;;;28.05;45.44;99834.34;5035414;28;8862;-65
2022/05/22 11:27:13;;;;;;;;;9.40;9.00;;;;;27.68;46.03;99814.50;5036191;28;9628;-65
2022/05/22 11:29:40;;;;;;;;;9.00;8.00;;;;;27.94;45.15;99814.09;5052245;28;8822;-64
2022/05/22 11:32:08;;;;;;;;;9.00;9.00;;;;;28.11;44.87;99811.47;5056122;28;8869;-65
2022/05/22 11:34:37;;;;;;;;;8.80;8.80;;;;;28.57;43.74;99809.59;5055460;28;8881;-65
2022/05/22 11:37:05;;;;;;;;;9.80;9.80;;;;;28.83;43.85;99806.28;5056453;28;8850;-65
2022/05/22 11:39:33;;;;;;;;;8.60;8.20;;;;;29.12;42.80;99798.97;5055917;28;8899;-64
2022/05/22 11:42:01;;;;;;;;;11.20;9.60;;;;;29.62;42.15;99792.53;5056335;28;8834;-65
2022/05/22 11:44:28;;;;;;;;;9.60;9.00;;;;;30.13;41.17;99784.06;5056300;28;8846;-65
2022/05/22 11:46:56;;;;;;;;;8.60;8.20;;;;;30.60;40.63;99786.09;5054725;28;8846;-65
2022/05/22 11:49:24;;;;;;;;;10.20;10.00;;;;;30.83;39.96;99783.13;5056110;28;8885;-65